首页
METAR-TAF:

METAR-TAF

机场 :

巴西利亚, 巴西利亚联邦行政区, 巴西

巴西利亚-儒塞利诺·库比契克总统国际机场

纬度: 15-52S, 经度: 047-56W, 海拔: 1061米

当前天气观测

该预报发布于43分钟前的14:00 UTC
风速10节,风向东转东北
温度 25°C
湿度 61%
气压 1023 hPa
能见度10公里或以上
少量云层高于3000英尺

METAR: SBBR 251400Z 07010KT 9999 FEW030 25/17 Q1023

时间: 11:43 (14:43 UTC)

预报

该预报发布于4小时和43分钟前的10:00 UTC
预报有效从25日的 12点(UTC)到 26日的 12点(UTC)
风速10节,风向
能见度10公里或以上
散云层高于2500英尺
成为
从 25日的 14点(UTC)到 25日的 16点(UTC)
风速9节,风向
多云层高于3500英尺
短暂存在
从 25日的 16点(UTC)到 25日的 22点(UTC)
能見度: 8000
多云层高于3500英尺
少量云层高于4000英尺, 塔状积云.
成为
从 25日的 19点(UTC)到 25日的 21点(UTC)
风速6节,风向东转东南
少量云层高于4000英尺
成为
从 25日的 23点(UTC)到 26日的 01点(UTC)
风速节,风向
能见度10公里或以上
1500米以下无云,无积雨云
成为
从 26日的 07点(UTC)到 26日的 09点(UTC)
风速5节,风向
能见度10公里或以上
散云层高于2500英尺

TAF: SBBR 251000Z 2512/2612 08010KT 9999 SCT025 TX26/2518Z TN15/2608Z BECMG 2514/2516 10009KT BKN035 TEMPO 2516/2522 8000 RA BKN035 FEW040TCU BECMG 2519/2521 12006KT FEW040 BECMG 2523/2601 00000KT CAVOK BECMG 2607/2609 10005KT 9999 SCT025 RMK PEJ

超过4000个机场的气象观测和天气预报(METAR&TAF报告)。

可查询的气象台以黄色和红色小点在地图上表示。

将鼠标移到小点上方,可查看气象台名称。

然后点击查看天气观测和预报。

如需切换地图:点击带黑十字的绿色按钮放大地图;点击带横线的绿色按钮缩小地图;或者点击绿色箭头查看邻近地区的地图。


METAR-TAF: